sensor_id;sensor_type;location;lat;lon;timestamp;temperature;humidity
76168;DHT22;64927;48.214;16.378;2023-03-13T00:01:09;11.60;54.10
76168;DHT22;64927;48.214;16.378;2023-03-13T00:03:35;11.60;54.10
76168;DHT22;64927;48.214;16.378;2023-03-13T00:06:01;11.60;54.30
76168;DHT22;64927;48.214;16.378;2023-03-13T00:08:29;11.60;54.20
76168;DHT22;64927;48.214;16.378;2023-03-13T00:10:57;11.60;54.20
76168;DHT22;64927;48.214;16.378;2023-03-13T00:13:23;11.50;54.10
76168;DHT22;64927;48.214;16.378;2023-03-13T00:15:48;11.50;54.10
76168;DHT22;64927;48.214;16.378;2023-03-13T00:18:14;11.60;53.80
76168;DHT22;64927;48.214;16.378;2023-03-13T00:20:39;11.60;53.90
76168;DHT22;64927;48.214;16.378;2023-03-13T00:23:05;11.60;53.90
76168;DHT22;64927;48.214;16.378;2023-03-13T00:25:31;11.70;53.70
76168;DHT22;64927;48.214;16.378;2023-03-13T00:27:56;11.70;53.70
76168;DHT22;64927;48.214;16.378;2023-03-13T00:30:22;11.60;53.90
76168;DHT22;64927;48.214;16.378;2023-03-13T00:32:48;11.70;53.70
76168;DHT22;64927;48.214;16.378;2023-03-13T00:35:14;11.70;53.60
76168;DHT22;64927;48.214;16.378;2023-03-13T00:37:40;11.80;53.40
76168;DHT22;64927;48.214;16.378;2023-03-13T00:40:06;11.80;53.40
76168;DHT22;64927;48.214;16.378;2023-03-13T00:42:33;11.70;53.40
76168;DHT22;64927;48.214;16.378;2023-03-13T00:45:01;11.70;53.40
76168;DHT22;64927;48.214;16.378;2023-03-13T00:47:27;11.70;53.10
76168;DHT22;64927;48.214;16.378;2023-03-13T00:49:55;11.70;54.10
76168;DHT22;64927;48.214;16.378;2023-03-13T00:52:21;11.60;52.90
76168;DHT22;64927;48.214;16.378;2023-03-13T00:54:47;11.60;53.00
76168;DHT22;64927;48.214;16.378;2023-03-13T00:57:15;11.50;52.90
76168;DHT22;64927;48.214;16.378;2023-03-13T00:59:41;11.40;52.80
76168;DHT22;64927;48.214;16.378;2023-03-13T01:02:09;11.40;53.00
76168;DHT22;64927;48.214;16.378;2023-03-13T01:04:35;11.40;52.70
76168;DHT22;64927;48.214;16.378;2023-03-13T01:07:01;11.40;52.40
76168;DHT22;64927;48.214;16.378;2023-03-13T01:09:26;11.40;52.30
76168;DHT22;64927;48.214;16.378;2023-03-13T01:11:52;11.40;52.30
76168;DHT22;64927;48.214;16.378;2023-03-13T01:14:19;11.30;52.30
76168;DHT22;64927;48.214;16.378;2023-03-13T01:16:47;11.20;52.40
76168;DHT22;64927;48.214;16.378;2023-03-13T01:19:14;11.30;52.50
76168;DHT22;64927;48.214;16.378;2023-03-13T01:21:41;11.20;52.50
76168;DHT22;64927;48.214;16.378;2023-03-13T01:24:10;11.20;52.30
76168;DHT22;64927;48.214;16.378;2023-03-13T01:26:35;11.20;52.40
76168;DHT22;64927;48.214;16.378;2023-03-13T01:29:01;11.20;52.30
76168;DHT22;64927;48.214;16.378;2023-03-13T01:31:32;11.20;52.40
76168;DHT22;64927;48.214;16.378;2023-03-13T01:34:00;11.20;52.40
76168;DHT22;64927;48.214;16.378;2023-03-13T01:36:26;11.20;52.30
76168;DHT22;64927;48.214;16.378;2023-03-13T01:38:54;11.10;52.30
76168;DHT22;64927;48.214;16.378;2023-03-13T01:41:21;11.10;52.40
76168;DHT22;64927;48.214;16.378;2023-03-13T01:43:47;11.10;52.40
76168;DHT22;64927;48.214;16.378;2023-03-13T01:46:16;11.00;52.60
76168;DHT22;64927;48.214;16.378;2023-03-13T01:53:45;11.00;52.60
76168;DHT22;64927;48.214;16.378;2023-03-13T01:56:19;10.90;52.50
76168;DHT22;64927;48.214;16.378;2023-03-13T01:58:48;10.90;52.60
76168;DHT22;64927;48.214;16.378;2023-03-13T02:01:16;10.90;52.60
76168;DHT22;64927;48.214;16.378;2023-03-13T02:03:43;10.90;52.60
76168;DHT22;64927;48.214;16.378;2023-03-13T02:06:10;10.90;52.40
76168;DHT22;64927;48.214;16.378;2023-03-13T02:08:52;10.80;52.70
76168;DHT22;64927;48.214;16.378;2023-03-13T02:14:08;10.70;52.50
76168;DHT22;64927;48.214;16.378;2023-03-13T02:16:35;10.70;52.50
76168;DHT22;64927;48.214;16.378;2023-03-13T02:19:19;10.60;52.40
76168;DHT22;64927;48.214;16.378;2023-03-13T02:21:54;10.60;52.40
76168;DHT22;64927;48.214;16.378;2023-03-13T02:24:55;10.60;52.60
76168;DHT22;64927;48.214;16.378;2023-03-13T02:27:24;10.60;52.70
76168;DHT22;64927;48.214;16.378;2023-03-13T02:29:51;10.50;52.70
76168;DHT22;64927;48.214;16.378;2023-03-13T02:32:17;10.60;52.70
76168;DHT22;64927;48.214;16.378;2023-03-13T02:34:43;10.60;52.80
76168;DHT22;64927;48.214;16.378;2023-03-13T02:37:12;10.60;52.70
76168;DHT22;64927;48.214;16.378;2023-03-13T02:39:43;10.60;52.90
76168;DHT22;64927;48.214;16.378;2023-03-13T02:42:14;10.50;52.80
76168;DHT22;64927;48.214;16.378;2023-03-13T02:44:42;10.50;52.80
76168;DHT22;64927;48.214;16.378;2023-03-13T02:47:09;10.60;53.00
76168;DHT22;64927;48.214;16.378;2023-03-13T02:49:35;10.60;52.70
76168;DHT22;64927;48.214;16.378;2023-03-13T02:52:28;10.70;52.50
76168;DHT22;64927;48.214;16.378;2023-03-13T02:54:58;10.70;52.40
76168;DHT22;64927;48.214;16.378;2023-03-13T02:57:27;10.80;52.50
76168;DHT22;64927;48.214;16.378;2023-03-13T02:59:53;10.70;52.70
76168;DHT22;64927;48.214;16.378;2023-03-13T03:02:19;10.80;52.70
76168;DHT22;64927;48.214;16.378;2023-03-13T03:04:45;10.80;52.90
76168;DHT22;64927;48.214;16.378;2023-03-13T03:07:11;10.80;53.10
76168;DHT22;64927;48.214;16.378;2023-03-13T03:09:39;10.80;53.20
76168;DHT22;64927;48.214;16.378;2023-03-13T03:12:07;10.80;53.20
76168;DHT22;64927;48.214;16.378;2023-03-13T03:14:33;10.80;53.30
76168;DHT22;64927;48.214;16.378;2023-03-13T03:16:59;10.80;53.40
76168;DHT22;64927;48.214;16.378;2023-03-13T03:19:27;10.80;53.30
76168;DHT22;64927;48.214;16.378;2023-03-13T03:21:53;10.80;53.30
76168;DHT22;64927;48.214;16.378;2023-03-13T03:24:18;10.80;53.40
76168;DHT22;64927;48.214;16.378;2023-03-13T03:26:44;10.80;53.40
76168;DHT22;64927;48.214;16.378;2023-03-13T03:29:09;10.80;53.70
76168;DHT22;64927;48.214;16.378;2023-03-13T03:31:35;10.80;53.60
76168;DHT22;64927;48.214;16.378;2023-03-13T03:34:01;10.90;53.70
76168;DHT22;64927;48.214;16.378;2023-03-13T03:36:27;10.80;53.50
76168;DHT22;64927;48.214;16.378;2023-03-13T03:38:53;10.80;53.60
76168;DHT22;64927;48.214;16.378;2023-03-13T03:41:21;10.90;53.40
76168;DHT22;64927;48.214;16.378;2023-03-13T03:43:47;10.80;53.40
76168;DHT22;64927;48.214;16.378;2023-03-13T03:46:14;10.80;53.20
76168;DHT22;64927;48.214;16.378;2023-03-13T03:48:39;10.80;53.20
76168;DHT22;64927;48.214;16.378;2023-03-13T03:51:05;10.80;53.10
76168;DHT22;64927;48.214;16.378;2023-03-13T03:53:31;10.80;53.10
76168;DHT22;64927;48.214;16.378;2023-03-13T03:55:57;10.90;53.10
76168;DHT22;64927;48.214;16.378;2023-03-13T03:58:23;10.80;52.90
76168;DHT22;64927;48.214;16.378;2023-03-13T04:00:49;10.80;53.00
76168;DHT22;64927;48.214;16.378;2023-03-13T04:03:15;10.80;53.00
76168;DHT22;64927;48.214;16.378;2023-03-13T04:05:41;10.80;53.00
76168;DHT22;64927;48.214;16.378;2023-03-13T04:08:07;10.80;53.00
76168;DHT22;64927;48.214;16.378;2023-03-13T04:10:34;10.80;53.00
76168;DHT22;64927;48.214;16.378;2023-03-13T04:12:59;10.80;53.10
76168;DHT22;64927;48.214;16.378;2023-03-13T04:15:25;10.80;53.30
76168;DHT22;64927;48.214;16.378;2023-03-13T04:17:51;10.80;53.30
76168;DHT22;64927;48.214;16.378;2023-03-13T04:20:17;10.80;53.30
76168;DHT22;64927;48.214;16.378;2023-03-13T04:22:43;10.80;53.40
76168;DHT22;64927;48.214;16.378;2023-03-13T04:25:09;10.80;53.30
76168;DHT22;64927;48.214;16.378;2023-03-13T04:27:35;10.90;53.30
76168;DHT22;64927;48.214;16.378;2023-03-13T04:30:02;11.00;53.10
76168;DHT22;64927;48.214;16.378;2023-03-13T04:32:28;10.90;53.00
76168;DHT22;64927;48.214;16.378;2023-03-13T04:34:54;10.90;53.00
76168;DHT22;64927;48.214;16.378;2023-03-13T04:37:20;10.80;52.80
76168;DHT22;64927;48.214;16.378;2023-03-13T04:39:48;10.80;52.90
76168;DHT22;64927;48.214;16.378;2023-03-13T04:42:13;10.90;52.30
76168;DHT22;64927;48.214;16.378;2023-03-13T04:44:39;10.90;52.20
76168;DHT22;64927;48.214;16.378;2023-03-13T04:47:05;10.90;51.90
76168;DHT22;64927;48.214;16.378;2023-03-13T04:49:30;11.10;51.50
76168;DHT22;64927;48.214;16.378;2023-03-13T04:51:56;11.00;51.30
76168;DHT22;64927;48.214;16.378;2023-03-13T04:54:22;11.00;51.00
76168;DHT22;64927;48.214;16.378;2023-03-13T04:56:47;11.20;50.60
76168;DHT22;64927;48.214;16.378;2023-03-13T04:59:14;11.30;50.20
76168;DHT22;64927;48.214;16.378;2023-03-13T05:01:41;11.30;50.00
76168;DHT22;64927;48.214;16.378;2023-03-13T05:04:08;11.30;49.90
76168;DHT22;64927;48.214;16.378;2023-03-13T05:06:34;11.30;49.80
76168;DHT22;64927;48.214;16.378;2023-03-13T05:09:03;11.30;49.80
76168;DHT22;64927;48.214;16.378;2023-03-13T05:11:31;11.30;49.70
76168;DHT22;64927;48.214;16.378;2023-03-13T05:13:57;11.30;49.70
76168;DHT22;64927;48.214;16.378;2023-03-13T05:16:22;11.30;49.80
76168;DHT22;64927;48.214;16.378;2023-03-13T05:18:48;11.30;49.70
76168;DHT22;64927;48.214;16.378;2023-03-13T05:21:13;11.40;49.70
76168;DHT22;64927;48.214;16.378;2023-03-13T05:23:39;11.40;49.60
76168;DHT22;64927;48.214;16.378;2023-03-13T05:26:05;11.30;49.60
76168;DHT22;64927;48.214;16.378;2023-03-13T05:28:31;11.30;49.70
76168;DHT22;64927;48.214;16.378;2023-03-13T05:30:56;11.20;49.70
76168;DHT22;64927;48.214;16.378;2023-03-13T05:33:22;11.30;49.80
76168;DHT22;64927;48.214;16.378;2023-03-13T05:35:48;11.20;49.90
76168;DHT22;64927;48.214;16.378;2023-03-13T05:38:14;11.20;50.00
76168;DHT22;64927;48.214;16.378;2023-03-13T05:40:40;11.10;50.20
76168;DHT22;64927;48.214;16.378;2023-03-13T05:43:06;11.20;50.30
76168;DHT22;64927;48.214;16.378;2023-03-13T05:45:33;11.20;50.40
76168;DHT22;64927;48.214;16.378;2023-03-13T05:47:59;11.20;50.50
76168;DHT22;64927;48.214;16.378;2023-03-13T05:50:25;11.20;50.60
76168;DHT22;64927;48.214;16.378;2023-03-13T05:52:51;11.20;50.60
76168;DHT22;64927;48.214;16.378;2023-03-13T05:55:18;11.30;50.70
76168;DHT22;64927;48.214;16.378;2023-03-13T05:57:45;11.30;50.50
76168;DHT22;64927;48.214;16.378;2023-03-13T06:00:12;11.40;50.50
76168;DHT22;64927;48.214;16.378;2023-03-13T06:02:38;11.50;50.40
76168;DHT22;64927;48.214;16.378;2023-03-13T06:05:04;11.50;50.30
76168;DHT22;64927;48.214;16.378;2023-03-13T06:07:30;11.50;50.40
76168;DHT22;64927;48.214;16.378;2023-03-13T06:09:58;11.50;50.40
76168;DHT22;64927;48.214;16.378;2023-03-13T06:12:23;11.50;50.40
76168;DHT22;64927;48.214;16.378;2023-03-13T06:14:49;11.60;50.30
76168;DHT22;64927;48.214;16.378;2023-03-13T06:17:15;11.60;50.10
76168;DHT22;64927;48.214;16.378;2023-03-13T06:19:40;11.60;50.20
76168;DHT22;64927;48.214;16.378;2023-03-13T06:22:06;11.60;50.20
76168;DHT22;64927;48.214;16.378;2023-03-13T06:24:34;11.60;50.40
76168;DHT22;64927;48.214;16.378;2023-03-13T06:27:00;11.70;50.30
76168;DHT22;64927;48.214;16.378;2023-03-13T06:29:26;11.60;50.40
76168;DHT22;64927;48.214;16.378;2023-03-13T06:31:52;11.70;50.50
76168;DHT22;64927;48.214;16.378;2023-03-13T06:34:17;11.90;50.20
76168;DHT22;64927;48.214;16.378;2023-03-13T06:36:44;12.00;49.80
76168;DHT22;64927;48.214;16.378;2023-03-13T06:39:10;12.10;49.40
76168;DHT22;64927;48.214;16.378;2023-03-13T06:41:36;12.10;49.30
76168;DHT22;64927;48.214;16.378;2023-03-13T06:44:03;12.20;49.10
76168;DHT22;64927;48.214;16.378;2023-03-13T06:46:28;12.00;49.10
76168;DHT22;64927;48.214;16.378;2023-03-13T06:48:54;12.10;49.30
76168;DHT22;64927;48.214;16.378;2023-03-13T06:51:21;12.20;49.10
76168;DHT22;64927;48.214;16.378;2023-03-13T06:53:47;12.30;49.00
76168;DHT22;64927;48.214;16.378;2023-03-13T06:56:13;12.40;48.60
76168;DHT22;64927;48.214;16.378;2023-03-13T06:58:39;12.50;48.40
76168;DHT22;64927;48.214;16.378;2023-03-13T07:01:10;12.60;48.30
76168;DHT22;64927;48.214;16.378;2023-03-13T07:03:37;12.80;47.90
76168;DHT22;64927;48.214;16.378;2023-03-13T07:06:04;12.90;47.70
76168;DHT22;64927;48.214;16.378;2023-03-13T07:08:30;12.90;47.20
76168;DHT22;64927;48.214;16.378;2023-03-13T07:11:01;12.90;47.50
76168;DHT22;64927;48.214;16.378;2023-03-13T07:13:26;13.20;47.20
76168;DHT22;64927;48.214;16.378;2023-03-13T07:15:53;13.60;46.40
76168;DHT22;64927;48.214;16.378;2023-03-13T07:18:20;14.00;45.00
76168;DHT22;64927;48.214;16.378;2023-03-13T07:20:55;14.70;44.20
76168;DHT22;64927;48.214;16.378;2023-03-13T07:23:22;15.30;41.50
76168;DHT22;64927;48.214;16.378;2023-03-13T07:25:56;15.20;41.50
76168;DHT22;64927;48.214;16.378;2023-03-13T07:28:23;15.00;41.80
76168;DHT22;64927;48.214;16.378;2023-03-13T07:30:49;14.60;42.40
76168;DHT22;64927;48.214;16.378;2023-03-13T07:33:18;14.30;42.70
76168;DHT22;64927;48.214;16.378;2023-03-13T07:35:47;14.20;43.00
76168;DHT22;64927;48.214;16.378;2023-03-13T07:38:13;14.30;42.80
76168;DHT22;64927;48.214;16.378;2023-03-13T07:40:39;14.20;42.80
76168;DHT22;64927;48.214;16.378;2023-03-13T07:43:05;14.30;42.70
76168;DHT22;64927;48.214;16.378;2023-03-13T07:45:30;14.40;43.10
76168;DHT22;64927;48.214;16.378;2023-03-13T07:47:56;14.70;41.60
76168;DHT22;64927;48.214;16.378;2023-03-13T07:50:21;14.60;41.20
76168;DHT22;64927;48.214;16.378;2023-03-13T07:52:47;14.60;41.40
76168;DHT22;64927;48.214;16.378;2023-03-13T07:55:13;14.50;41.60
76168;DHT22;64927;48.214;16.378;2023-03-13T07:57:41;14.50;42.10
76168;DHT22;64927;48.214;16.378;2023-03-13T08:00:07;14.40;41.20
76168;DHT22;64927;48.214;16.378;2023-03-13T08:02:37;14.50;41.60
76168;DHT22;64927;48.214;16.378;2023-03-13T08:05:06;14.30;40.80
76168;DHT22;64927;48.214;16.378;2023-03-13T08:07:31;14.30;41.20
76168;DHT22;64927;48.214;16.378;2023-03-13T08:09:57;14.30;41.00
76168;DHT22;64927;48.214;16.378;2023-03-13T08:12:23;14.60;41.30
76168;DHT22;64927;48.214;16.378;2023-03-13T08:14:51;15.00;40.80
76168;DHT22;64927;48.214;16.378;2023-03-13T08:17:16;15.40;40.10
76168;DHT22;64927;48.214;16.378;2023-03-13T08:19:42;15.80;38.70
76168;DHT22;64927;48.214;16.378;2023-03-13T08:22:08;15.80;37.70
76168;DHT22;64927;48.214;16.378;2023-03-13T08:24:33;15.50;37.80
76168;DHT22;64927;48.214;16.378;2023-03-13T08:27:01;15.50;38.40
76168;DHT22;64927;48.214;16.378;2023-03-13T08:29:27;15.40;38.90
76168;DHT22;64927;48.214;16.378;2023-03-13T08:31:52;15.40;38.70
76168;DHT22;64927;48.214;16.378;2023-03-13T08:34:19;15.30;38.90
76168;DHT22;64927;48.214;16.378;2023-03-13T08:36:47;15.30;39.10
76168;DHT22;64927;48.214;16.378;2023-03-13T08:39:14;15.20;39.20
76168;DHT22;64927;48.214;16.378;2023-03-13T08:41:40;15.20;39.80
76168;DHT22;64927;48.214;16.378;2023-03-13T08:44:07;15.20;40.00
76168;DHT22;64927;48.214;16.378;2023-03-13T08:46:36;15.20;39.90
76168;DHT22;64927;48.214;16.378;2023-03-13T08:49:03;15.00;39.90
76168;DHT22;64927;48.214;16.378;2023-03-13T08:51:29;14.80;40.40
76168;DHT22;64927;48.214;16.378;2023-03-13T08:53:55;14.60;40.90
76168;DHT22;64927;48.214;16.378;2023-03-13T08:56:27;14.60;41.00
76168;DHT22;64927;48.214;16.378;2023-03-13T08:58:59;14.90;40.90
76168;DHT22;64927;48.214;16.378;2023-03-13T09:01:28;15.10;40.10
76168;DHT22;64927;48.214;16.378;2023-03-13T09:03:55;15.10;39.40
76168;DHT22;64927;48.214;16.378;2023-03-13T09:06:24;15.10;39.70
76168;DHT22;64927;48.214;16.378;2023-03-13T09:08:49;15.00;39.70
76168;DHT22;64927;48.214;16.378;2023-03-13T09:11:18;14.70;40.00
76168;DHT22;64927;48.214;16.378;2023-03-13T09:13:45;14.70;40.50
76168;DHT22;64927;48.214;16.378;2023-03-13T09:16:17;14.80;40.60
76168;DHT22;64927;48.214;16.378;2023-03-13T09:18:43;14.90;40.40
76168;DHT22;64927;48.214;16.378;2023-03-13T09:21:12;15.10;39.80
76168;DHT22;64927;48.214;16.378;2023-03-13T09:23:42;15.10;39.70
76168;DHT22;64927;48.214;16.378;2023-03-13T09:26:30;15.10;38.90
76168;DHT22;64927;48.214;16.378;2023-03-13T09:28:59;15.00;39.10
76168;DHT22;64927;48.214;16.378;2023-03-13T09:31:29;14.90;39.50
76168;DHT22;64927;48.214;16.378;2023-03-13T09:33:55;14.90;39.00
76168;DHT22;64927;48.214;16.378;2023-03-13T09:36:22;14.90;38.80
76168;DHT22;64927;48.214;16.378;2023-03-13T09:38:52;14.90;39.00
76168;DHT22;64927;48.214;16.378;2023-03-13T09:46:42;15.00;38.20
76168;DHT22;64927;48.214;16.378;2023-03-13T09:49:14;14.80;38.30
76168;DHT22;64927;48.214;16.378;2023-03-13T09:51:46;14.80;38.60
76168;DHT22;64927;48.214;16.378;2023-03-13T09:54:32;15.10;38.20
76168;DHT22;64927;48.214;16.378;2023-03-13T10:02:34;15.60;36.00
76168;DHT22;64927;48.214;16.378;2023-03-13T10:05:14;15.60;35.90
76168;DHT22;64927;48.214;16.378;2023-03-13T10:07:42;15.50;35.70
76168;DHT22;64927;48.214;16.378;2023-03-13T10:10:14;15.40;36.10
76168;DHT22;64927;48.214;16.378;2023-03-13T10:12:52;15.20;36.20
76168;DHT22;64927;48.214;16.378;2023-03-13T10:15:47;15.20;36.20
76168;DHT22;64927;48.214;16.378;2023-03-13T10:18:17;15.40;36.40
76168;DHT22;64927;48.214;16.378;2023-03-13T10:20:48;15.70;35.90
76168;DHT22;64927;48.214;16.378;2023-03-13T10:25:54;15.60;35.80
76168;DHT22;64927;48.214;16.378;2023-03-13T10:28:20;15.60;36.00
76168;DHT22;64927;48.214;16.378;2023-03-13T10:31:25;15.50;36.30
76168;DHT22;64927;48.214;16.378;2023-03-13T10:33:51;15.70;36.10
76168;DHT22;64927;48.214;16.378;2023-03-13T10:36:18;15.80;35.80
76168;DHT22;64927;48.214;16.378;2023-03-13T10:38:53;16.10;35.50
76168;DHT22;64927;48.214;16.378;2023-03-13T10:41:34;16.10;34.50
76168;DHT22;64927;48.214;16.378;2023-03-13T10:44:05;15.80;35.50
76168;DHT22;64927;48.214;16.378;2023-03-13T10:46:40;15.70;35.70
76168;DHT22;64927;48.214;16.378;2023-03-13T10:49:20;15.70;35.90
76168;DHT22;64927;48.214;16.378;2023-03-13T10:51:52;15.60;36.40
76168;DHT22;64927;48.214;16.378;2023-03-13T10:54:22;16.00;35.60
76168;DHT22;64927;48.214;16.378;2023-03-13T10:56:49;16.10;35.00
76168;DHT22;64927;48.214;16.378;2023-03-13T10:59:24;16.20;35.00
76168;DHT22;64927;48.214;16.378;2023-03-13T11:01:51;16.20;34.90
76168;DHT22;64927;48.214;16.378;2023-03-13T11:04:30;16.10;35.30
76168;DHT22;64927;48.214;16.378;2023-03-13T11:07:14;16.30;35.20
76168;DHT22;64927;48.214;16.378;2023-03-13T11:09:40;16.40;35.00
76168;DHT22;64927;48.214;16.378;2023-03-13T11:12:19;16.40;34.60
76168;DHT22;64927;48.214;16.378;2023-03-13T11:14:45;16.30;34.70
76168;DHT22;64927;48.214;16.378;2023-03-13T11:22:42;16.30;35.00
76168;DHT22;64927;48.214;16.378;2023-03-13T11:25:19;16.30;35.00
76168;DHT22;64927;48.214;16.378;2023-03-13T11:28:21;16.50;34.90
76168;DHT22;64927;48.214;16.378;2023-03-13T11:42:47;16.90;34.10
76168;DHT22;64927;48.214;16.378;2023-03-13T11:47:50;16.90;33.80
76168;DHT22;64927;48.214;16.378;2023-03-13T11:53:21;16.90;33.90
76168;DHT22;64927;48.214;16.378;2023-03-13T11:56:14;16.90;33.80
76168;DHT22;64927;48.214;16.378;2023-03-13T12:01:49;17.10;33.50
76168;DHT22;64927;48.214;16.378;2023-03-13T12:07:06;17.00;32.90
76168;DHT22;64927;48.214;16.378;2023-03-13T12:15:22;17.10;33.20
76168;DHT22;64927;48.214;16.378;2023-03-13T12:18:01;17.20;32.70
76168;DHT22;64927;48.214;16.378;2023-03-13T12:20:41;17.30;32.90
76168;DHT22;64927;48.214;16.378;2023-03-13T12:23:29;17.40;32.20
76168;DHT22;64927;48.214;16.378;2023-03-13T12:26:03;17.30;32.50
76168;DHT22;64927;48.214;16.378;2023-03-13T12:29:02;17.40;33.00
76168;DHT22;64927;48.214;16.378;2023-03-13T12:31:39;17.60;32.80
76168;DHT22;64927;48.214;16.378;2023-03-13T12:34:26;17.80;31.80
76168;DHT22;64927;48.214;16.378;2023-03-13T12:37:02;17.90;31.80
76168;DHT22;64927;48.214;16.378;2023-03-13T12:42:27;17.90;32.00
76168;DHT22;64927;48.214;16.378;2023-03-13T12:44:58;18.00;31.40
76168;DHT22;64927;48.214;16.378;2023-03-13T12:47:31;18.10;31.30
76168;DHT22;64927;48.214;16.378;2023-03-13T12:59:01;17.80;32.10
76168;DHT22;64927;48.214;16.378;2023-03-13T13:04:07;17.70;31.90
76168;DHT22;64927;48.214;16.378;2023-03-13T13:09:37;17.30;32.30
76168;DHT22;64927;48.214;16.378;2023-03-13T13:12:20;17.20;32.70
76168;DHT22;64927;48.214;16.378;2023-03-13T13:20:47;17.60;32.60
76168;DHT22;64927;48.214;16.378;2023-03-13T13:23:27;17.60;32.70
76168;DHT22;64927;48.214;16.378;2023-03-13T13:28:59;17.40;33.20
76168;DHT22;64927;48.214;16.378;2023-03-13T13:39:34;17.00;34.00
76168;DHT22;64927;48.214;16.378;2023-03-13T13:47:29;16.90;34.00
76168;DHT22;64927;48.214;16.378;2023-03-13T13:50:01;17.00;34.10
76168;DHT22;64927;48.214;16.378;2023-03-13T13:52:34;17.10;33.90
76168;DHT22;64927;48.214;16.378;2023-03-13T13:55:00;17.20;33.70
76168;DHT22;64927;48.214;16.378;2023-03-13T13:57:30;17.20;33.60
76168;DHT22;64927;48.214;16.378;2023-03-13T14:02:53;17.30;33.40
76168;DHT22;64927;48.214;16.378;2023-03-13T14:05:31;17.20;33.50
76168;DHT22;64927;48.214;16.378;2023-03-13T14:08:05;17.20;33.50
76168;DHT22;64927;48.214;16.378;2023-03-13T14:12:59;17.40;33.20
76168;DHT22;64927;48.214;16.378;2023-03-13T14:15:27;17.50;33.30
76168;DHT22;64927;48.214;16.378;2023-03-13T14:17:54;17.70;32.90
76168;DHT22;64927;48.214;16.378;2023-03-13T14:20:34;17.80;32.40
76168;DHT22;64927;48.214;16.378;2023-03-13T14:23:03;17.90;32.30
76168;DHT22;64927;48.214;16.378;2023-03-13T14:25:49;17.90;31.90
76168;DHT22;64927;48.214;16.378;2023-03-13T14:28:24;17.80;32.20
76168;DHT22;64927;48.214;16.378;2023-03-13T14:30:57;17.70;32.40
76168;DHT22;64927;48.214;16.378;2023-03-13T14:33:24;17.80;32.30
76168;DHT22;64927;48.214;16.378;2023-03-13T14:35:52;17.90;32.00
76168;DHT22;64927;48.214;16.378;2023-03-13T14:38:23;17.80;32.20
76168;DHT22;64927;48.214;16.378;2023-03-13T14:40:50;17.90;31.80
76168;DHT22;64927;48.214;16.378;2023-03-13T14:43:46;17.90;31.20
76168;DHT22;64927;48.214;16.378;2023-03-13T14:46:15;17.90;31.10
76168;DHT22;64927;48.214;16.378;2023-03-13T14:48:47;17.80;31.10
76168;DHT22;64927;48.214;16.378;2023-03-13T14:51:23;17.90;31.10
76168;DHT22;64927;48.214;16.378;2023-03-13T14:54:00;17.80;31.30
76168;DHT22;64927;48.214;16.378;2023-03-13T14:56:35;17.90;31.30
76168;DHT22;64927;48.214;16.378;2023-03-13T14:59:25;17.90;31.20
76168;DHT22;64927;48.214;16.378;2023-03-13T15:04:56;17.90;30.90
76168;DHT22;64927;48.214;16.378;2023-03-13T15:07:46;17.80;30.90
76168;DHT22;64927;48.214;16.378;2023-03-13T15:10:24;17.70;31.40
76168;DHT22;64927;48.214;16.378;2023-03-13T15:12:50;17.70;31.10
76168;DHT22;64927;48.214;16.378;2023-03-13T15:15:17;17.80;31.20
76168;DHT22;64927;48.214;16.378;2023-03-13T15:17:43;17.70;31.10
76168;DHT22;64927;48.214;16.378;2023-03-13T15:20:13;17.70;31.10
76168;DHT22;64927;48.214;16.378;2023-03-13T15:22:42;17.60;31.20
76168;DHT22;64927;48.214;16.378;2023-03-13T15:25:16;17.60;31.40
76168;DHT22;64927;48.214;16.378;2023-03-13T15:27:48;17.60;31.30
76168;DHT22;64927;48.214;16.378;2023-03-13T15:30:16;17.60;31.50
76168;DHT22;64927;48.214;16.378;2023-03-13T15:32:42;17.50;31.30
76168;DHT22;64927;48.214;16.378;2023-03-13T15:37:58;17.40;31.60
76168;DHT22;64927;48.214;16.378;2023-03-13T15:40:25;17.40;31.90
76168;DHT22;64927;48.214;16.378;2023-03-13T15:42:52;17.30;31.90
76168;DHT22;64927;48.214;16.378;2023-03-13T15:45:19;17.30;32.10
76168;DHT22;64927;48.214;16.378;2023-03-13T15:47:45;17.40;31.90
76168;DHT22;64927;48.214;16.378;2023-03-13T15:50:13;17.30;32.10
76168;DHT22;64927;48.214;16.378;2023-03-13T15:52:39;17.30;31.90
76168;DHT22;64927;48.214;16.378;2023-03-13T15:55:05;17.20;32.10
76168;DHT22;64927;48.214;16.378;2023-03-13T15:57:48;17.20;32.30
76168;DHT22;64927;48.214;16.378;2023-03-13T16:00:21;17.20;32.20
76168;DHT22;64927;48.214;16.378;2023-03-13T16:02:47;17.20;32.40
76168;DHT22;64927;48.214;16.378;2023-03-13T16:05:13;17.10;32.40
76168;DHT22;64927;48.214;16.378;2023-03-13T16:07:42;17.10;32.60
76168;DHT22;64927;48.214;16.378;2023-03-13T16:10:22;17.10;32.80
76168;DHT22;64927;48.214;16.378;2023-03-13T16:12:51;17.10;32.70
76168;DHT22;64927;48.214;16.378;2023-03-13T16:15:17;17.00;32.70
76168;DHT22;64927;48.214;16.378;2023-03-13T16:17:45;17.00;32.90
76168;DHT22;64927;48.214;16.378;2023-03-13T16:20:15;16.90;33.10
76168;DHT22;64927;48.214;16.378;2023-03-13T16:22:41;16.90;33.10
76168;DHT22;64927;48.214;16.378;2023-03-13T16:25:07;16.90;33.30
76168;DHT22;64927;48.214;16.378;2023-03-13T16:27:33;16.80;33.30
76168;DHT22;64927;48.214;16.378;2023-03-13T16:30:02;16.80;33.30
76168;DHT22;64927;48.214;16.378;2023-03-13T16:32:28;16.80;33.50
76168;DHT22;64927;48.214;16.378;2023-03-13T16:34:54;16.70;33.50
76168;DHT22;64927;48.214;16.378;2023-03-13T16:37:20;16.70;33.50
76168;DHT22;64927;48.214;16.378;2023-03-13T16:39:46;16.70;34.60
76168;DHT22;64927;48.214;16.378;2023-03-13T16:42:13;16.70;33.80
76168;DHT22;64927;48.214;16.378;2023-03-13T16:44:41;16.60;34.80
76168;DHT22;64927;48.214;16.378;2023-03-13T16:47:21;16.60;34.10
76168;DHT22;64927;48.214;16.378;2023-03-13T16:49:47;16.50;34.20
76168;DHT22;64927;48.214;16.378;2023-03-13T16:52:15;16.50;34.30
76168;DHT22;64927;48.214;16.378;2023-03-13T16:54:43;16.40;34.60
76168;DHT22;64927;48.214;16.378;2023-03-13T16:57:15;16.40;34.70
76168;DHT22;64927;48.214;16.378;2023-03-13T16:59:44;16.40;34.70
76168;DHT22;64927;48.214;16.378;2023-03-13T17:02:17;16.30;34.70
76168;DHT22;64927;48.214;16.378;2023-03-13T17:04:45;16.30;34.70
76168;DHT22;64927;48.214;16.378;2023-03-13T17:07:20;16.20;34.90
76168;DHT22;64927;48.214;16.378;2023-03-13T17:09:48;16.30;34.80
76168;DHT22;64927;48.214;16.378;2023-03-13T17:12:17;16.30;34.80
76168;DHT22;64927;48.214;16.378;2023-03-13T17:14:44;16.20;35.90